Time;durP1;ratioP1;P1;durP2;ratioP2;P2;SDS_P1;SDS_P2;PMS_P1;PMS_P2;Temp;Humidity;BMP_temperature;BMP_pressure;BME280_temperature;BME280_humidity;BME280_pressure;Samples;Min_cycle;Max_cycle;Signal;HPM_P1;HPM_P2
2023/05/07 00:01:27;;;;;;;1.88;0.70;;;11.70;99.90;;;;;;5113530;28;20255;-73
2023/05/07 00:03:58;;;;;;;0.75;0.60;;;11.60;99.90;;;;;;5106045;28;20532;-72
2023/05/07 00:06:29;;;;;;;1.33;0.70;;;11.60;99.90;;;;;;5113895;28;20202;-73
2023/05/07 00:09:01;;;;;;;1.35;0.70;;;11.50;99.90;;;;;;5113954;28;20202;-73
2023/05/07 00:11:32;;;;;;;1.95;0.80;;;11.50;99.90;;;;;;5113356;28;20598;-73
2023/05/07 00:14:04;;;;;;;1.58;0.70;;;11.50;99.90;;;;;;5104971;28;20196;-73
2023/05/07 00:16:38;;;;;;;1.00;0.80;;;11.50;99.90;;;;;;5112989;28;20242;-73
2023/05/07 00:19:09;;;;;;;1.13;0.90;;;11.50;99.90;;;;;;5113535;28;20202;-73
2023/05/07 00:21:40;;;;;;;1.35;0.85;;;11.50;99.90;;;;;;5114066;28;20198;-73
2023/05/07 00:24:11;;;;;;;1.77;0.73;;;11.60;99.90;;;;;;5110278;28;20549;-74
2023/05/07 00:26:42;;;;;;;3.63;0.95;;;11.50;99.90;;;;;;5113289;28;20194;-74
2023/05/07 00:29:14;;;;;;;0.80;0.80;;;11.50;99.90;;;;;;5113844;28;20202;-73
2023/05/07 00:31:47;;;;;;;1.95;0.77;;;11.50;99.90;;;;;;5113199;28;20416;-73
2023/05/07 00:34:18;;;;;;;1.23;0.70;;;11.50;99.90;;;;;;5112875;28;20530;-73
2023/05/07 00:36:49;;;;;;;1.17;0.80;;;11.60;99.90;;;;;;5109965;28;20215;-73
2023/05/07 00:39:20;;;;;;;4.57;0.80;;;11.60;99.90;;;;;;5104090;28;20220;-74
2023/05/07 00:41:51;;;;;;;1.00;0.70;;;11.60;99.90;;;;;;5112649;28;20191;-73
2023/05/07 00:44:22;;;;;;;1.52;1.00;;;11.60;99.90;;;;;;5094945;28;20188;-74
2023/05/07 00:46:56;;;;;;;1.00;0.90;;;11.60;99.90;;;;;;5097497;28;20221;-72
2023/05/07 00:49:33;;;;;;;2.55;0.90;;;11.60;99.90;;;;;;5113798;28;20634;-74
2023/05/07 00:52:04;;;;;;;2.45;1.00;;;11.70;99.90;;;;;;5112820;28;20701;-73
2023/05/07 00:54:37;;;;;;;1.08;0.82;;;11.70;99.90;;;;;;5110541;28;20647;-72
2023/05/07 00:57:08;;;;;;;2.50;0.90;;;11.80;99.90;;;;;;5093352;28;20229;-73
2023/05/07 00:59:40;;;;;;;0.80;0.80;;;11.80;99.90;;;;;;5093405;28;20192;-72
2023/05/07 01:02:13;;;;;;;1.30;0.80;;;11.90;99.90;;;;;;5093687;28;20242;-72
2023/05/07 01:04:45;;;;;;;3.22;0.80;;;11.90;99.90;;;;;;5093372;28;20196;-72
2023/05/07 01:07:17;;;;;;;2.38;1.00;;;11.90;99.90;;;;;;5093397;28;20620;-73
2023/05/07 01:09:48;;;;;;;4.57;1.08;;;11.90;99.90;;;;;;5094781;28;20578;-73
2023/05/07 01:12:20;;;;;;;1.60;0.90;;;12.00;99.90;;;;;;5102058;28;20188;-73
2023/05/07 01:14:51;;;;;;;1.20;0.82;;;12.00;99.90;;;;;;5113479;28;20201;-72
2023/05/07 01:17:24;;;;;;;2.03;1.00;;;12.10;99.90;;;;;;5097983;28;20683;-72
2023/05/07 01:19:55;;;;;;;3.75;1.40;;;12.20;99.90;;;;;;5093254;28;20192;-75
2023/05/07 01:22:38;;;;;;;1.55;0.90;;;12.30;99.90;;;;;;5107718;28;20658;-74
2023/05/07 01:25:10;;;;;;;1.77;0.95;;;12.30;99.90;;;;;;5093145;28;20188;-73
2023/05/07 01:27:41;;;;;;;1.70;0.90;;;12.40;99.90;;;;;;5105350;28;20196;-74
2023/05/07 01:30:13;;;;;;;1.35;1.10;;;12.40;99.90;;;;;;5095641;28;20216;-74
2023/05/07 01:32:46;;;;;;;0.80;0.77;;;12.40;99.90;;;;;;5111158;28;20206;-73
2023/05/07 01:35:22;;;;;;;0.90;0.75;;;12.40;99.90;;;;;;5099554;28;20199;-73
2023/05/07 01:37:55;;;;;;;1.50;0.90;;;12.40;99.90;;;;;;5102989;28;20217;-73
2023/05/07 01:40:28;;;;;;;1.50;0.93;;;12.40;99.90;;;;;;5104703;28;20330;-74
2023/05/07 01:42:59;;;;;;;1.17;0.80;;;12.40;99.90;;;;;;5113230;28;20200;-74
2023/05/07 01:45:32;;;;;;;3.60;1.05;;;12.40;99.90;;;;;;5113145;28;20211;-74
2023/05/07 01:48:05;;;;;;;1.20;0.90;;;12.40;99.90;;;;;;5113393;28;20483;-74
2023/05/07 01:50:38;;;;;;;2.05;1.20;;;12.50;99.90;;;;;;5095629;28;20196;-74
2023/05/07 01:53:11;;;;;;;1.58;0.90;;;12.70;99.90;;;;;;5097273;28;20223;-73
2023/05/07 01:55:42;;;;;;;1.00;0.90;;;13.10;99.90;;;;;;5111917;28;20667;-73
2023/05/07 01:58:13;;;;;;;1.48;0.80;;;13.40;99.90;;;;;;5097848;28;20192;-74
2023/05/07 02:00:45;;;;;;;1.05;0.70;;;13.40;99.90;;;;;;5094803;28;20206;-73
2023/05/07 02:03:16;;;;;;;0.82;0.65;;;13.40;99.90;;;;;;5100898;28;20666;-73
2023/05/07 02:05:47;;;;;;;0.77;0.60;;;13.30;99.90;;;;;;5098534;28;20197;-73
2023/05/07 02:08:20;;;;;;;1.02;0.70;;;13.20;99.90;;;;;;5110390;28;20207;-73
2023/05/07 02:10:51;;;;;;;1.20;0.60;;;13.30;99.90;;;;;;5110860;28;20658;-73
2023/05/07 02:13:24;;;;;;;0.70;0.70;;;13.50;99.90;;;;;;5110548;28;20252;-73
2023/05/07 02:15:55;;;;;;;1.38;0.60;;;13.80;99.90;;;;;;5116011;28;20564;-74
2023/05/07 02:18:26;;;;;;;1.23;0.60;;;14.10;99.90;;;;;;5116058;28;20662;-73
2023/05/07 02:20:57;;;;;;;1.05;0.60;;;14.30;99.90;;;;;;5108344;28;20192;-74
2023/05/07 02:23:32;;;;;;;1.90;0.52;;;14.30;99.90;;;;;;5102273;28;20195;-74
2023/05/07 02:26:03;;;;;;;1.60;0.70;;;14.50;99.90;;;;;;5100326;28;20639;-75
2023/05/07 02:28:35;;;;;;;1.33;0.52;;;14.70;99.90;;;;;;5096558;28;20188;-75
2023/05/07 02:31:07;;;;;;;0.82;0.50;;;14.80;99.90;;;;;;5113830;28;20191;-74
2023/05/07 02:33:38;;;;;;;1.08;0.47;;;15.00;99.90;;;;;;5116369;28;20635;-74
2023/05/07 02:36:13;;;;;;;0.50;0.50;;;15.00;99.90;;;;;;5116126;27;20531;-75
2023/05/07 02:38:46;;;;;;;0.50;0.50;;;15.10;99.90;;;;;;5115368;28;20225;-74
2023/05/07 02:41:17;;;;;;;0.57;0.30;;;15.20;99.90;;;;;;5113009;28;20204;-75
2023/05/07 02:43:48;;;;;;;0.28;0.20;;;15.30;99.90;;;;;;5099390;28;20204;-74
2023/05/07 02:46:19;;;;;;;0.70;0.30;;;15.20;99.90;;;;;;5110612;28;20211;-75
2023/05/07 02:48:50;;;;;;;0.40;0.40;;;15.20;99.90;;;;;;5113766;28;20202;-75
2023/05/07 02:51:22;;;;;;;0.77;0.40;;;15.00;99.90;;;;;;5115298;28;20199;-74
2023/05/07 02:53:55;;;;;;;0.52;0.40;;;14.90;99.90;;;;;;5115212;28;20234;-75
2023/05/07 02:56:28;;;;;;;0.95;0.50;;;14.80;99.90;;;;;;5114868;28;20690;-75
2023/05/07 02:59:00;;;;;;;1.58;0.60;;;14.80;99.90;;;;;;5113435;28;20195;-74
2023/05/07 03:01:31;;;;;;;0.63;0.47;;;14.80;99.90;;;;;;5108991;28;20198;-75
2023/05/07 03:04:02;;;;;;;0.70;0.60;;;14.70;99.90;;;;;;5109672;28;20234;-75
2023/05/07 03:06:33;;;;;;;2.25;0.60;;;14.40;99.90;;;;;;5099075;28;20188;-76
2023/05/07 03:09:06;;;;;;;1.20;0.50;;;14.00;99.90;;;;;;5095296;28;20211;-76
2023/05/07 03:11:38;;;;;;;1.42;0.60;;;13.60;99.90;;;;;;5108882;28;20192;-73
2023/05/07 03:14:09;;;;;;;0.63;0.60;;;13.10;99.90;;;;;;5114548;27;20203;-74
2023/05/07 03:16:41;;;;;;;3.35;0.70;;;12.90;99.90;;;;;;5111262;28;20226;-73
2023/05/07 03:19:12;;;;;;;0.77;0.55;;;12.60;99.90;;;;;;5104883;28;20266;-73
2023/05/07 03:21:43;;;;;;;1.95;0.80;;;12.50;99.90;;;;;;5112513;28;20199;-73
2023/05/07 03:24:16;;;;;;;0.77;0.65;;;12.40;99.90;;;;;;5109384;28;20195;-75
2023/05/07 03:26:48;;;;;;;2.47;0.70;;;12.40;99.90;;;;;;5108698;28;20659;-73
2023/05/07 03:29:19;;;;;;;1.45;0.50;;;12.60;99.90;;;;;;5105467;28;20196;-73
2023/05/07 03:31:50;;;;;;;1.58;0.75;;;12.90;99.90;;;;;;5103861;28;20187;-73
2023/05/07 03:34:21;;;;;;;1.27;0.80;;;13.20;99.90;;;;;;5105764;28;20189;-74
2023/05/07 03:36:53;;;;;;;1.95;0.70;;;13.30;99.90;;;;;;5107236;28;20215;-76
2023/05/07 03:39:27;;;;;;;0.98;0.50;;;13.40;99.90;;;;;;5103183;28;20221;-75
2023/05/07 03:41:58;;;;;;;2.47;0.50;;;13.40;99.90;;;;;;5110265;27;20288;-73
2023/05/07 03:44:29;;;;;;;3.28;0.50;;;13.40;99.90;;;;;;5111032;28;20203;-74
2023/05/07 03:47:01;;;;;;;0.90;0.57;;;13.60;99.90;;;;;;5107586;28;20199;-74
2023/05/07 03:49:32;;;;;;;1.48;0.50;;;13.70;99.90;;;;;;5113058;28;20191;-73
2023/05/07 03:52:03;;;;;;;0.95;0.45;;;13.90;99.90;;;;;;5114096;28;20690;-74
2023/05/07 03:54:36;;;;;;;1.45;0.60;;;14.10;99.90;;;;;;5108277;28;20191;-73
2023/05/07 03:57:07;;;;;;;0.50;0.50;;;14.20;99.90;;;;;;5098871;27;20300;-74
2023/05/07 03:59:38;;;;;;;1.80;0.50;;;14.20;99.90;;;;;;5095419;28;20196;-74
2023/05/07 04:02:09;;;;;;;0.88;0.60;;;14.40;99.90;;;;;;5100921;28;20199;-73
2023/05/07 04:04:40;;;;;;;1.75;0.50;;;14.60;99.90;;;;;;5112337;28;20223;-74
2023/05/07 04:07:11;;;;;;;1.20;0.60;;;14.80;99.90;;;;;;5095627;28;20660;-74
2023/05/07 04:09:45;;;;;;;2.38;0.70;;;15.00;99.90;;;;;;5104729;28;20184;-74
2023/05/07 04:12:16;;;;;;;1.70;0.63;;;15.20;99.90;;;;;;5112507;28;20199;-73
2023/05/07 04:14:47;;;;;;;1.60;0.68;;;15.30;99.90;;;;;;5109218;28;20195;-74
2023/05/07 04:17:18;;;;;;;0.95;0.55;;;15.40;99.90;;;;;;5107407;28;20694;-74
2023/05/07 04:19:49;;;;;;;2.47;0.50;;;15.40;99.90;;;;;;5101141;28;20199;-75
2023/05/07 04:22:20;;;;;;;1.15;0.40;;;15.50;99.90;;;;;;5097247;28;20193;-73
2023/05/07 04:24:54;;;;;;;0.65;0.38;;;15.70;99.90;;;;;;5107238;28;20195;-75
2023/05/07 04:27:25;;;;;;;0.60;0.40;;;15.80;99.90;;;;;;5108783;28;20561;-76
2023/05/07 04:29:56;;;;;;;0.80;0.30;;;15.80;99.90;;;;;;5109077;28;20285;-74
2023/05/07 04:32:28;;;;;;;0.60;0.40;;;15.70;99.90;;;;;;5093784;28;20651;-75
2023/05/07 04:35:00;;;;;;;2.08;0.30;;;15.70;99.90;;;;;;5093712;28;20240;-75
2023/05/07 04:37:31;;;;;;;0.45;0.30;;;15.70;99.90;;;;;;5101779;28;20216;-76
2023/05/07 04:40:05;;;;;;;1.55;0.63;;;15.80;99.90;;;;;;5093792;28;20198;-77
2023/05/07 04:42:36;;;;;;;0.60;0.40;;;15.90;99.90;;;;;;5109489;28;20212;-74
2023/05/07 04:45:08;;;;;;;0.52;0.30;;;15.90;99.90;;;;;;5113203;28;20195;-74
2023/05/07 04:47:39;;;;;;;0.52;0.40;;;16.00;99.90;;;;;;5112223;28;20252;-76
2023/05/07 04:50:11;;;;;;;0.65;0.40;;;16.00;99.90;;;;;;5112590;28;20199;-77
2023/05/07 04:52:43;;;;;;;0.20;0.20;;;16.00;99.90;;;;;;5110752;28;20226;-75
2023/05/07 04:55:16;;;;;;;1.20;0.40;;;16.00;99.90;;;;;;5106842;28;20577;-74
2023/05/07 04:57:47;;;;;;;0.70;0.25;;;16.00;99.90;;;;;;5104583;28;20573;-74
2023/05/07 05:00:19;;;;;;;0.35;0.30;;;16.00;99.90;;;;;;5095531;28;20207;-74
2023/05/07 05:02:50;;;;;;;0.55;0.38;;;16.00;99.90;;;;;;5102058;28;20257;-73
2023/05/07 05:05:21;;;;;;;0.30;0.30;;;16.00;99.90;;;;;;5105667;28;20537;-74
2023/05/07 05:07:53;;;;;;;0.20;0.20;;;16.10;99.90;;;;;;5107844;28;20626;-74
2023/05/07 05:10:27;;;;;;;0.85;0.30;;;16.10;99.90;;;;;;5106818;28;20196;-75
2023/05/07 05:12:58;;;;;;;0.40;0.30;;;16.00;99.90;;;;;;5093957;28;20265;-74
2023/05/07 05:15:29;;;;;;;0.35;0.35;;;16.00;99.90;;;;;;5097188;28;20639;-75
2023/05/07 05:18:00;;;;;;;0.57;0.30;;;16.10;99.90;;;;;;5105168;28;20213;-77
2023/05/07 05:20:31;;;;;;;1.33;0.50;;;16.10;99.90;;;;;;5093338;28;20242;-75
2023/05/07 05:23:02;;;;;;;1.63;0.40;;;16.10;99.90;;;;;;5093013;28;20188;-75
2023/05/07 05:25:35;;;;;;;0.30;0.30;;;16.10;99.90;;;;;;5098418;28;20197;-76
2023/05/07 05:28:06;;;;;;;0.77;0.30;;;16.00;99.90;;;;;;5112633;28;20212;-76
2023/05/07 05:30:38;;;;;;;0.30;0.30;;;15.90;99.90;;;;;;5110541;28;20198;-76
2023/05/07 05:33:09;;;;;;;0.38;0.38;;;15.90;99.90;;;;;;5101419;28;20199;-76
2023/05/07 05:35:40;;;;;;;0.75;0.30;;;15.80;99.90;;;;;;5114587;28;20199;-74
2023/05/07 05:38:11;;;;;;;1.15;0.50;;;15.80;99.90;;;;;;5097163;28;20216;-77
2023/05/07 05:40:44;;;;;;;1.60;0.50;;;15.60;99.90;;;;;;5109921;28;20192;-76
2023/05/07 05:43:17;;;;;;;1.25;0.50;;;15.60;99.90;;;;;;5117290;28;20195;-76
2023/05/07 05:45:48;;;;;;;0.50;0.40;;;15.50;99.90;;;;;;5116619;28;20204;-75
2023/05/07 05:48:19;;;;;;;0.85;0.50;;;15.50;99.90;;;;;;5112500;28;20215;-75
2023/05/07 05:50:50;;;;;;;1.38;0.50;;;15.70;99.90;;;;;;5108106;28;20316;-74
2023/05/07 05:53:23;;;;;;;0.75;0.40;;;15.70;99.90;;;;;;5108250;28;20603;-76
2023/05/07 05:55:57;;;;;;;0.55;0.55;;;15.70;99.90;;;;;;5116523;28;20196;-75
2023/05/07 05:58:30;;;;;;;0.98;0.50;;;15.80;99.90;;;;;;5115655;28;20300;-75
2023/05/07 06:01:02;;;;;;;0.45;0.40;;;15.70;99.90;;;;;;5114353;28;20191;-75
2023/05/07 06:03:35;;;;;;;1.00;0.60;;;15.60;99.90;;;;;;5111918;28;20206;-75
2023/05/07 06:06:06;;;;;;;0.80;0.70;;;15.60;99.90;;;;;;5099359;28;20207;-75
2023/05/07 06:08:37;;;;;;;1.55;0.90;;;15.60;99.90;;;;;;5105163;28;20200;-75
2023/05/07 06:11:11;;;;;;;0.70;0.70;;;15.60;99.90;;;;;;5103478;28;20199;-75
2023/05/07 06:13:42;;;;;;;0.80;0.80;;;15.50;99.90;;;;;;5114079;28;20193;-77
2023/05/07 06:16:14;;;;;;;0.80;0.80;;;15.40;99.90;;;;;;5112439;28;20231;-75
2023/05/07 06:18:46;;;;;;;0.93;0.80;;;15.30;99.90;;;;;;5107188;28;20675;-76
2023/05/07 06:21:17;;;;;;;6.60;1.00;;;15.10;99.90;;;;;;5107094;28;20180;-75
2023/05/07 06:23:48;;;;;;;1.58;1.00;;;15.10;99.90;;;;;;5107072;28;20215;-75
2023/05/07 06:26:23;;;;;;;1.05;1.00;;;15.00;99.90;;;;;;5103980;28;20655;-75
2023/05/07 06:28:54;;;;;;;1.42;0.90;;;14.90;99.90;;;;;;5098556;28;20218;-75
2023/05/07 06:31:25;;;;;;;1.02;0.93;;;14.80;99.90;;;;;;5106286;28;20199;-77
2023/05/07 06:34:01;;;;;;;0.85;0.73;;;14.70;99.90;;;;;;5103634;28;20548;-76
2023/05/07 06:36:38;;;;;;;0.80;0.80;;;14.60;99.90;;;;;;5104158;28;20271;-75
2023/05/07 06:39:09;;;;;;;0.85;0.80;;;14.50;99.90;;;;;;5106132;28;20204;-76
2023/05/07 06:41:46;;;;;;;0.50;0.50;;;14.40;99.90;;;;;;5105054;28;20211;-75
2023/05/07 06:44:17;;;;;;;0.70;0.70;;;14.30;99.90;;;;;;5104075;28;20192;-75
2023/05/07 06:47:05;;;;;;;0.68;0.68;;;14.30;99.90;;;;;;5104381;28;20203;-75
2023/05/07 06:49:36;;;;;;;0.70;0.70;;;14.20;99.90;;;;;;5106296;28;20230;-75
2023/05/07 06:52:07;;;;;;;0.70;0.70;;;14.10;99.90;;;;;;5105313;28;20222;-75
2023/05/07 06:55:01;;;;;;;0.50;0.50;;;14.10;99.90;;;;;;5104067;28;20194;-74
2023/05/07 06:57:34;;;;;;;0.50;0.50;;;14.00;99.90;;;;;;5111550;28;20199;-76
2023/05/07 07:00:06;;;;;;;0.50;0.50;;;13.90;99.90;;;;;;5114248;27;20195;-76
2023/05/07 07:02:39;;;;;;;1.08;0.80;;;13.80;99.90;;;;;;5113939;28;20191;-75
2023/05/07 07:05:11;;;;;;;0.73;0.73;;;13.70;99.90;;;;;;5114552;28;20195;-75
2023/05/07 07:07:42;;;;;;;0.80;0.77;;;13.60;99.90;;;;;;5112790;28;20808;-76
2023/05/07 07:10:13;;;;;;;0.60;0.60;;;13.60;99.90;;;;;;5102237;28;20526;-74
2023/05/07 07:12:46;;;;;;;0.70;0.70;;;13.50;99.90;;;;;;5105563;28;20179;-75
2023/05/07 07:15:18;;;;;;;0.95;0.80;;;13.40;99.90;;;;;;5113148;28;20217;-74
2023/05/07 07:17:49;;;;;;;0.60;0.60;;;13.40;99.90;;;;;;5112914;28;20222;-75
2023/05/07 07:20:20;;;;;;;0.50;0.50;;;13.30;99.90;;;;;;5113351;27;20700;-75
2023/05/07 07:22:51;;;;;;;0.60;0.60;;;13.30;99.90;;;;;;5107674;28;20687;-75
2023/05/07 07:25:23;;;;;;;1.10;0.70;;;13.20;99.90;;;;;;5112088;28;20193;-75
2023/05/07 07:27:56;;;;;;;0.60;0.60;;;13.10;99.90;;;;;;5100983;28;20198;-75
2023/05/07 07:30:28;;;;;;;1.45;0.60;;;13.00;99.90;;;;;;5106691;28;20199;-75
2023/05/07 07:33:02;;;;;;;0.60;0.60;;;12.90;99.90;;;;;;5112653;28;20599;-75
2023/05/07 07:35:33;;;;;;;0.70;0.65;;;12.90;99.90;;;;;;5096159;28;20208;-74
2023/05/07 07:38:04;;;;;;;1.17;0.60;;;12.80;99.90;;;;;;5096986;28;20220;-75
2023/05/07 07:40:36;;;;;;;0.70;0.70;;;12.70;99.90;;;;;;5100680;28;20195;-75
2023/05/07 07:43:10;;;;;;;1.35;1.00;;;12.70;99.90;;;;;;5094653;28;20577;-76
2023/05/07 07:45:41;;;;;;;0.80;0.80;;;12.70;99.90;;;;;;5110828;28;20194;-75
2023/05/07 07:48:12;;;;;;;0.80;0.80;;;12.60;99.90;;;;;;5102640;28;20192;-76
2023/05/07 07:50:43;;;;;;;0.80;0.80;;;12.50;99.90;;;;;;5113292;28;20195;-75
2023/05/07 07:53:14;;;;;;;0.80;0.80;;;12.50;99.90;;;;;;5114634;28;20231;-75
2023/05/07 07:55:45;;;;;;;0.60;0.60;;;12.40;99.90;;;;;;5111476;28;20208;-75
2023/05/07 07:58:18;;;;;;;1.15;0.80;;;12.40;99.90;;;;;;5101976;28;20222;-75
2023/05/07 08:00:49;;;;;;;0.68;0.68;;;12.40;99.90;;;;;;5099779;28;20545;-75
2023/05/07 08:03:20;;;;;;;0.80;0.60;;;12.40;99.90;;;;;;5108856;28;20279;-75
2023/05/07 08:05:51;;;;;;;0.93;0.70;;;12.30;99.90;;;;;;5110292;28;20193;-74
2023/05/07 08:08:22;;;;;;;0.52;0.52;;;12.30;99.90;;;;;;5110626;28;20199;-76
2023/05/07 08:10:54;;;;;;;0.73;0.65;;;12.30;99.90;;;;;;5111385;28;20594;-75
2023/05/07 08:13:27;;;;;;;1.25;0.88;;;12.20;99.90;;;;;;5113592;28;20226;-75
2023/05/07 08:15:58;;;;;;;0.90;0.75;;;12.20;99.90;;;;;;5112217;28;20199;-77
2023/05/07 08:18:30;;;;;;;0.70;0.70;;;12.20;99.90;;;;;;5098800;28;20216;-76
2023/05/07 08:21:01;;;;;;;0.70;0.70;;;12.20;99.90;;;;;;5094229;28;20204;-74
2023/05/07 08:23:33;;;;;;;0.75;0.60;;;12.10;99.90;;;;;;5098798;28;20570;-75
2023/05/07 08:26:05;;;;;;;0.85;0.70;;;12.10;99.90;;;;;;5103723;28;20724;-75
2023/05/07 08:28:38;;;;;;;0.50;0.50;;;12.10;99.90;;;;;;5093784;28;20200;-76
2023/05/07 08:31:09;;;;;;;0.70;0.70;;;12.10;99.90;;;;;;5097643;28;20196;-77
2023/05/07 08:33:40;;;;;;;0.80;0.80;;;12.00;99.90;;;;;;5110363;28;20195;-75
2023/05/07 08:36:11;;;;;;;1.50;1.00;;;12.00;99.90;;;;;;5111444;28;20188;-76
2023/05/07 08:38:45;;;;;;;1.63;1.13;;;12.00;99.90;;;;;;5113328;28;20215;-75
2023/05/07 08:41:16;;;;;;;1.75;1.13;;;12.00;99.90;;;;;;5113478;28;20195;-76
2023/05/07 08:43:51;;;;;;;1.20;1.02;;;11.90;99.90;;;;;;5102109;28;20192;-76
2023/05/07 08:46:23;;;;;;;1.85;1.20;;;11.90;99.90;;;;;;5107620;28;21937;-75
2023/05/07 08:48:55;;;;;;;2.10;1.30;;;11.90;99.90;;;;;;5113971;28;20198;-75
2023/05/07 08:51:26;;;;;;;2.20;1.38;;;11.90;99.90;;;;;;5108887;28;20195;-75
2023/05/07 08:53:58;;;;;;;2.25;1.80;;;12.00;99.90;;;;;;5107452;28;20613;-76
2023/05/07 08:56:29;;;;;;;2.25;1.40;;;12.00;99.90;;;;;;5101883;28;20197;-74
2023/05/07 08:59:02;;;;;;;1.85;1.30;;;11.90;99.90;;;;;;5110780;28;20224;-77
2023/05/07 09:01:35;;;;;;;1.20;1.00;;;11.90;99.90;;;;;;5112766;28;20199;-76
2023/05/07 09:04:06;;;;;;;1.15;1.02;;;11.90;99.90;;;;;;5111559;28;20236;-76
2023/05/07 09:06:37;;;;;;;3.45;1.20;;;11.90;99.90;;;;;;5102319;28;20271;-75
2023/05/07 09:09:09;;;;;;;2.22;1.30;;;11.90;99.90;;;;;;5112823;28;20617;-75
2023/05/07 09:11:40;;;;;;;3.25;1.60;;;11.80;99.90;;;;;;5118089;28;20205;-75
2023/05/07 09:14:13;;;;;;;2.83;1.75;;;11.80;99.90;;;;;;5110778;28;20211;-75
2023/05/07 09:16:44;;;;;;;2.88;1.50;;;11.80;99.90;;;;;;5113118;28;20657;-76
2023/05/07 09:19:15;;;;;;;2.17;1.55;;;11.80;99.90;;;;;;5116984;28;20222;-76
2023/05/07 09:21:46;;;;;;;2.80;1.55;;;11.80;99.90;;;;;;5117421;28;20198;-77
2023/05/07 09:24:19;;;;;;;1.63;1.23;;;11.70;99.90;;;;;;5116909;28;20712;-75
2023/05/07 09:26:50;;;;;;;2.20;1.33;;;11.80;99.90;;;;;;5116097;28;20202;-75
2023/05/07 09:29:23;;;;;;;1.67;1.10;;;11.80;99.90;;;;;;5117309;28;20198;-75
2023/05/07 09:31:54;;;;;;;1.00;0.75;;;11.80;99.90;;;;;;5103971;28;20222;-76
2023/05/07 09:34:26;;;;;;;0.88;0.80;;;11.90;99.90;;;;;;5111849;28;20197;-75
2023/05/07 09:36:58;;;;;;;0.90;0.80;;;11.80;99.90;;;;;;5116271;28;20191;-75
2023/05/07 09:39:41;;;;;;;1.05;0.82;;;11.80;99.90;;;;;;5104959;28;20216;-74
2023/05/07 09:42:12;;;;;;;0.60;0.60;;;11.80;99.90;;;;;;5108734;28;20196;-76
2023/05/07 09:44:46;;;;;;;0.50;0.50;;;11.80;99.90;;;;;;5108845;28;20188;-75
2023/05/07 09:47:21;;;;;;;0.50;0.50;;;11.70;99.90;;;;;;5113380;28;20254;-75
2023/05/07 09:49:56;;;;;;;0.40;0.40;;;11.70;99.90;;;;;;5105360;28;20663;-75
2023/05/07 09:52:33;;;;;;;0.40;0.40;;;11.70;99.90;;;;;;5102857;28;20231;-75
2023/05/07 09:55:05;;;;;;;0.40;0.40;;;11.70;99.90;;;;;;5116493;28;20202;-74
2023/05/07 09:57:38;;;;;;;0.40;0.40;;;11.70;99.90;;;;;;5115760;28;20690;-74
2023/05/07 10:00:13;;;;;;;0.30;0.30;;;11.60;99.90;;;;;;5113304;28;20583;-75
2023/05/07 10:02:48;;;;;;;0.30;0.30;;;11.50;99.90;;;;;;5103194;28;20199;-75
2023/05/07 10:05:19;;;;;;;0.32;0.32;;;11.50;99.90;;;;;;5109948;28;20195;-76
2023/05/07 10:07:51;;;;;;;0.40;0.40;;;11.40;99.90;;;;;;5114454;28;20327;-75
2023/05/07 10:10:22;;;;;;;0.47;0.30;;;11.40;99.90;;;;;;5116173;28;20213;-74
2023/05/07 10:12:55;;;;;;;0.40;0.40;;;11.40;99.90;;;;;;5113035;28;20202;-76
2023/05/07 10:15:28;;;;;;;0.25;0.25;;;11.30;99.90;;;;;;5113281;28;20199;-75
2023/05/07 10:18:00;;;;;;;0.30;0.30;;;11.30;99.90;;;;;;5116186;28;20206;-76
2023/05/07 10:20:31;;;;;;;0.30;0.30;;;11.30;99.90;;;;;;5115352;28;20212;-75
2023/05/07 10:23:06;;;;;;;0.20;0.20;;;11.30;99.90;;;;;;5115833;28;20199;-76
2023/05/07 10:25:37;;;;;;;0.35;0.30;;;11.20;99.90;;;;;;5107672;28;20191;-75
2023/05/07 10:28:11;;;;;;;0.30;0.30;;;11.20;99.90;;;;;;5111709;28;20192;-75
2023/05/07 10:30:56;;;;;;;0.38;0.30;;;11.20;99.90;;;;;;5108125;28;20195;-76
2023/05/07 10:33:31;;;;;;;0.30;0.30;;;11.20;99.90;;;;;;5113755;28;20231;-75
2023/05/07 10:36:04;;;;;;;0.30;0.30;;;11.10;99.90;;;;;;5112631;28;20210;-74
2023/05/07 10:38:35;;;;;;;0.30;0.30;;;11.10;99.90;;;;;;5106666;28;20195;-74
2023/05/07 10:41:07;;;;;;;0.30;0.30;;;11.00;99.90;;;;;;5113520;27;20195;-75
2023/05/07 10:43:45;;;;;;;0.30;0.30;;;11.00;99.90;;;;;;5113856;28;20202;-74
2023/05/07 10:46:20;;;;;;;0.30;0.30;;;11.00;99.90;;;;;;5102641;28;20222;-75
2023/05/07 10:49:16;;;;;;;1.00;0.40;;;11.00;99.90;;;;;;5114342;28;20191;-75
2023/05/07 10:51:47;;;;;;;1.45;0.30;;;11.00;99.90;;;;;;5103638;28;20263;-75
2023/05/07 10:54:27;;;;;;;0.22;0.22;;;11.00;99.90;;;;;;5115461;28;20257;-75
2023/05/07 10:56:58;;;;;;;0.30;0.30;;;11.00;99.90;;;;;;5104941;28;20642;-74
2023/05/07 10:59:42;;;;;;;0.30;0.30;;;10.90;99.90;;;;;;5109923;28;20215;-74
2023/05/07 11:02:15;;;;;;;0.20;0.20;;;10.90;99.90;;;;;;5100588;28;20195;-75
2023/05/07 11:04:46;;;;;;;0.73;0.30;;;10.90;99.90;;;;;;5105622;28;20202;-75
2023/05/07 11:07:31;;;;;;;0.30;0.30;;;10.90;99.90;;;;;;5112556;28;20192;-76
2023/05/07 11:10:07;;;;;;;0.20;0.20;;;10.90;99.90;;;;;;5107994;28;20206;-75
2023/05/07 11:13:08;;;;;;;0.40;0.30;;;10.80;99.90;;;;;;5114692;28;20191;-75
2023/05/07 11:15:44;;;;;;;0.20;0.20;;;10.80;99.90;;;;;;5110885;28;20191;-75
2023/05/07 11:18:18;;;;;;;0.20;0.20;;;10.80;99.90;;;;;;5102515;28;20200;-75
2023/05/07 11:21:02;;;;;;;0.30;0.30;;;10.80;99.90;;;;;;5108014;28;20700;-74
2023/05/07 11:24:00;;;;;;;0.30;0.25;;;10.80;99.90;;;;;;5102215;28;20208;-74
2023/05/07 11:26:33;;;;;;;0.30;0.30;;;10.70;99.90;;;;;;5111660;28;20217;-74
2023/05/07 11:29:04;;;;;;;0.30;0.30;;;10.60;99.90;;;;;;5114435;28;20238;-73
2023/05/07 11:31:35;;;;;;;0.32;0.32;;;10.30;99.90;;;;;;5099225;28;20191;-76
2023/05/07 11:34:10;;;;;;;0.40;0.25;;;10.10;99.90;;;;;;5112723;28;20311;-74
2023/05/07 11:36:48;;;;;;;2.63;0.30;;;9.90;99.90;;;;;;5111610;28;20665;-75
2023/05/07 11:39:30;;;;;;;1.10;0.30;;;9.80;99.90;;;;;;5105763;28;20203;-75
2023/05/07 11:42:01;;;;;;;0.30;0.30;;;9.70;99.90;;;;;;5104317;28;21118;-75
2023/05/07 11:44:46;;;;;;;0.20;0.20;;;9.60;99.90;;;;;;5106690;28;20206;-74
2023/05/07 11:47:22;;;;;;;0.40;0.40;;;9.50;99.90;;;;;;5109806;28;20658;-74
2023/05/07 11:49:56;;;;;;;0.30;0.30;;;9.30;99.90;;;;;;5108634;28;20213;-75
2023/05/07 11:52:28;;;;;;;0.20;0.20;;;9.20;99.90;;;;;;5105847;28;20227;-74
2023/05/07 11:55:00;;;;;;;0.28;0.28;;;9.10;99.90;;;;;;5103848;28;20208;-75
2023/05/07 11:57:31;;;;;;;0.30;0.30;;;9.00;99.90;;;;;;5105789;28;20199;-75
2023/05/07 12:00:04;;;;;;;1.70;0.30;;;8.90;99.90;;;;;;5108874;28;20215;-75
2023/05/07 12:02:35;;;;;;;0.50;0.30;;;8.70;99.90;;;;;;5105726;28;20270;-77
2023/05/07 12:05:08;;;;;;;0.95;0.30;;;8.60;99.90;;;;;;5112590;28;20192;-75
2023/05/07 12:07:39;;;;;;;0.85;0.30;;;8.50;99.90;;;;;;5112408;28;20521;-76
2023/05/07 12:10:11;;;;;;;0.40;0.40;;;8.30;99.90;;;;;;5111497;28;20179;-74
2023/05/07 12:12:48;;;;;;;0.57;0.40;;;8.10;99.90;;;;;;5094026;28;20206;-74
2023/05/07 12:15:25;;;;;;;1.10;0.45;;;8.00;99.90;;;;;;5094167;28;20192;-73
2023/05/07 12:17:56;;;;;;;0.30;0.30;;;7.90;99.90;;;;;;5094804;28;20279;-73
2023/05/07 12:20:29;;;;;;;0.70;0.47;;;7.90;99.90;;;;;;5099901;28;20211;-73
2023/05/07 12:23:00;;;;;;;0.73;0.40;;;7.90;99.90;;;;;;5114344;28;20523;-74
2023/05/07 12:25:34;;;;;;;0.55;0.40;;;7.90;99.90;;;;;;5100238;27;20202;-73
2023/05/07 12:28:05;;;;;;;0.63;0.43;;;7.80;99.90;;;;;;5107500;28;20210;-73
2023/05/07 12:30:40;;;;;;;1.20;0.50;;;7.80;99.90;;;;;;5099804;28;20196;-75
2023/05/07 12:33:11;;;;;;;0.95;0.60;;;7.90;99.90;;;;;;5110334;28;20191;-76
2023/05/07 12:35:45;;;;;;;0.60;0.43;;;7.90;99.90;;;;;;5111921;28;20221;-75
2023/05/07 12:38:17;;;;;;;1.40;0.60;;;7.80;99.90;;;;;;5099303;28;20198;-75
2023/05/07 12:40:50;;;;;;;0.40;0.40;;;7.90;99.90;;;;;;5113243;28;20230;-76
2023/05/07 12:43:22;;;;;;;1.02;0.50;;;7.80;99.90;;;;;;5105174;28;20223;-75
2023/05/07 12:45:56;;;;;;;0.32;0.32;;;7.80;99.90;;;;;;5111246;28;20191;-75
2023/05/07 12:48:28;;;;;;;3.58;0.60;;;7.80;99.90;;;;;;5099038;28;20191;-73
2023/05/07 12:51:04;;;;;;;0.90;0.50;;;7.80;99.90;;;;;;5113090;28;20591;-75
2023/05/07 12:53:36;;;;;;;1.27;0.38;;;7.90;99.90;;;;;;5106652;28;20227;-76
2023/05/07 12:56:11;;;;;;;0.47;0.47;;;7.90;99.90;;;;;;5107381;28;20199;-76
2023/05/07 12:58:42;;;;;;;1.65;0.60;;;7.90;99.90;;;;;;5110184;28;20567;-76
2023/05/07 13:01:15;;;;;;;1.08;0.52;;;7.90;99.90;;;;;;5104483;28;20220;-76
2023/05/07 13:03:52;;;;;;;2.85;0.47;;;7.90;99.90;;;;;;5112679;28;20195;-75
2023/05/07 13:06:26;;;;;;;0.50;0.50;;;8.00;99.90;;;;;;5104763;28;20196;-76
2023/05/07 13:08:57;;;;;;;0.75;0.50;;;8.00;99.90;;;;;;5093415;28;20557;-76
2023/05/07 13:11:28;;;;;;;0.40;0.40;;;8.00;99.90;;;;;;5093705;28;20192;-76
2023/05/07 13:13:59;;;;;;;2.20;0.60;;;8.10;99.90;;;;;;5093426;28;20246;-76
2023/05/07 13:16:30;;;;;;;0.88;0.50;;;8.10;99.90;;;;;;5093415;28;20539;-75